sensor_id;sensor_type;location;lat;lon;timestamp;temperature;humidity
49132;DHT22;35149;51.196;6.204;2023-04-29T00:00:14;15.30;67.30
49132;DHT22;35149;51.196;6.204;2023-04-29T00:02:41;15.30;67.40
49132;DHT22;35149;51.196;6.204;2023-04-29T00:05:16;15.20;67.20
49132;DHT22;35149;51.196;6.204;2023-04-29T00:07:46;15.20;67.20
49132;DHT22;35149;51.196;6.204;2023-04-29T00:10:16;15.20;67.10
49132;DHT22;35149;51.196;6.204;2023-04-29T00:12:45;15.10;67.10
49132;DHT22;35149;51.196;6.204;2023-04-29T00:15:12;15.10;67.10
49132;DHT22;35149;51.196;6.204;2023-04-29T00:17:41;15.00;67.00
49132;DHT22;35149;51.196;6.204;2023-04-29T00:20:08;15.00;67.10
49132;DHT22;35149;51.196;6.204;2023-04-29T00:22:38;15.10;67.80
49132;DHT22;35149;51.196;6.204;2023-04-29T00:25:08;15.00;67.30
49132;DHT22;35149;51.196;6.204;2023-04-29T00:27:39;14.90;67.20
49132;DHT22;35149;51.196;6.204;2023-04-29T00:30:07;14.90;67.20
49132;DHT22;35149;51.196;6.204;2023-04-29T00:32:36;14.90;67.30
49132;DHT22;35149;51.196;6.204;2023-04-29T00:35:03;14.80;67.50
49132;DHT22;35149;51.196;6.204;2023-04-29T00:37:30;14.80;67.50
49132;DHT22;35149;51.196;6.204;2023-04-29T00:39:59;14.80;67.60
49132;DHT22;35149;51.196;6.204;2023-04-29T00:42:28;14.80;67.80
49132;DHT22;35149;51.196;6.204;2023-04-29T00:44:56;14.80;67.90
49132;DHT22;35149;51.196;6.204;2023-04-29T00:47:28;14.70;67.90
49132;DHT22;35149;51.196;6.204;2023-04-29T00:49:54;14.70;68.00
49132;DHT22;35149;51.196;6.204;2023-04-29T00:52:22;14.70;68.10
49132;DHT22;35149;51.196;6.204;2023-04-29T00:54:51;14.70;68.20
49132;DHT22;35149;51.196;6.204;2023-04-29T00:57:21;14.70;68.50
49132;DHT22;35149;51.196;6.204;2023-04-29T00:59:48;14.70;68.30
49132;DHT22;35149;51.196;6.204;2023-04-29T01:02:18;14.70;68.40
49132;DHT22;35149;51.196;6.204;2023-04-29T01:04:45;14.60;68.40
49132;DHT22;35149;51.196;6.204;2023-04-29T01:07:22;14.60;68.30
49132;DHT22;35149;51.196;6.204;2023-04-29T01:10:02;14.60;68.60
49132;DHT22;35149;51.196;6.204;2023-04-29T01:12:33;14.60;68.70
49132;DHT22;35149;51.196;6.204;2023-04-29T01:15:16;14.70;68.30
49132;DHT22;35149;51.196;6.204;2023-04-29T01:20:25;14.60;68.50
49132;DHT22;35149;51.196;6.204;2023-04-29T01:22:54;14.60;68.40
49132;DHT22;35149;51.196;6.204;2023-04-29T01:25:21;14.60;68.50
49132;DHT22;35149;51.196;6.204;2023-04-29T01:28:52;14.60;68.60
49132;DHT22;35149;51.196;6.204;2023-04-29T01:31:52;14.60;68.80
49132;DHT22;35149;51.196;6.204;2023-04-29T01:35:24;14.60;68.90
49132;DHT22;35149;51.196;6.204;2023-04-29T01:37:42;14.60;68.70
49132;DHT22;35149;51.196;6.204;2023-04-29T01:40:21;14.60;68.50
49132;DHT22;35149;51.196;6.204;2023-04-29T01:43:03;14.50;68.30
49132;DHT22;35149;51.196;6.204;2023-04-29T01:45:33;14.50;68.30
49132;DHT22;35149;51.196;6.204;2023-04-29T01:48:01;14.50;68.40
49132;DHT22;35149;51.196;6.204;2023-04-29T01:50:30;14.50;68.30
49132;DHT22;35149;51.196;6.204;2023-04-29T01:53:06;14.40;68.40
49132;DHT22;35149;51.196;6.204;2023-04-29T01:55:36;14.40;68.40
49132;DHT22;35149;51.196;6.204;2023-04-29T01:58:15;14.40;68.40
49132;DHT22;35149;51.196;6.204;2023-04-29T02:01:13;14.40;68.50
49132;DHT22;35149;51.196;6.204;2023-04-29T02:03:45;14.30;68.50
49132;DHT22;35149;51.196;6.204;2023-04-29T02:06:14;14.30;68.60
49132;DHT22;35149;51.196;6.204;2023-04-29T02:08:41;14.20;68.60
49132;DHT22;35149;51.196;6.204;2023-04-29T02:11:09;14.20;68.80
49132;DHT22;35149;51.196;6.204;2023-04-29T02:13:46;14.10;68.90
49132;DHT22;35149;51.196;6.204;2023-04-29T02:16:14;14.10;68.90
49132;DHT22;35149;51.196;6.204;2023-04-29T02:18:57;14.10;69.10
49132;DHT22;35149;51.196;6.204;2023-04-29T02:21:34;14.00;69.10
49132;DHT22;35149;51.196;6.204;2023-04-29T02:24:01;14.00;69.60
49132;DHT22;35149;51.196;6.204;2023-04-29T02:26:32;13.90;69.10
49132;DHT22;35149;51.196;6.204;2023-04-29T02:29:02;13.90;69.30
49132;DHT22;35149;51.196;6.204;2023-04-29T02:31:31;13.90;69.40
49132;DHT22;35149;51.196;6.204;2023-04-29T02:33:58;13.80;69.40
49132;DHT22;35149;51.196;6.204;2023-04-29T02:36:28;13.80;69.40
49132;DHT22;35149;51.196;6.204;2023-04-29T02:39:01;13.80;69.50
49132;DHT22;35149;51.196;6.204;2023-04-29T02:41:29;13.80;69.50
49132;DHT22;35149;51.196;6.204;2023-04-29T02:44:01;13.80;69.50
49132;DHT22;35149;51.196;6.204;2023-04-29T02:46:33;13.80;69.60
49132;DHT22;35149;51.196;6.204;2023-04-29T02:49:04;13.80;69.50
49132;DHT22;35149;51.196;6.204;2023-04-29T02:51:31;13.80;69.40
49132;DHT22;35149;51.196;6.204;2023-04-29T02:53:57;13.80;69.40
49132;DHT22;35149;51.196;6.204;2023-04-29T02:56:26;13.80;69.20
49132;DHT22;35149;51.196;6.204;2023-04-29T02:59:00;13.80;69.00
49132;DHT22;35149;51.196;6.204;2023-04-29T03:01:32;13.80;68.80
49132;DHT22;35149;51.196;6.204;2023-04-29T03:03:59;13.80;68.90
49132;DHT22;35149;51.196;6.204;2023-04-29T03:06:26;13.80;69.00
49132;DHT22;35149;51.196;6.204;2023-04-29T03:08:58;13.70;69.00
49132;DHT22;35149;51.196;6.204;2023-04-29T03:11:27;13.80;69.00
49132;DHT22;35149;51.196;6.204;2023-04-29T03:13:56;13.80;68.90
49132;DHT22;35149;51.196;6.204;2023-04-29T03:16:23;13.80;68.80
49132;DHT22;35149;51.196;6.204;2023-04-29T03:18:53;13.80;68.70
49132;DHT22;35149;51.196;6.204;2023-04-29T03:21:19;13.70;68.60
49132;DHT22;35149;51.196;6.204;2023-04-29T03:23:47;13.70;68.70
49132;DHT22;35149;51.196;6.204;2023-04-29T03:26:26;13.70;68.90
49132;DHT22;35149;51.196;6.204;2023-04-29T03:28:55;13.70;68.90
49132;DHT22;35149;51.196;6.204;2023-04-29T03:31:22;13.70;68.90
49132;DHT22;35149;51.196;6.204;2023-04-29T03:33:53;13.70;68.90
49132;DHT22;35149;51.196;6.204;2023-04-29T03:36:23;13.70;68.90
49132;DHT22;35149;51.196;6.204;2023-04-29T03:39:06;13.60;69.00
49132;DHT22;35149;51.196;6.204;2023-04-29T03:41:35;13.60;68.90
49132;DHT22;35149;51.196;6.204;2023-04-29T03:44:02;13.60;69.00
49132;DHT22;35149;51.196;6.204;2023-04-29T03:46:29;13.60;69.00
49132;DHT22;35149;51.196;6.204;2023-04-29T03:49:02;13.60;69.10
49132;DHT22;35149;51.196;6.204;2023-04-29T03:51:31;13.40;69.10
49132;DHT22;35149;51.196;6.204;2023-04-29T03:54:12;13.50;69.40
49132;DHT22;35149;51.196;6.204;2023-04-29T03:56:41;13.50;69.30
49132;DHT22;35149;51.196;6.204;2023-04-29T03:59:15;13.50;69.30
49132;DHT22;35149;51.196;6.204;2023-04-29T04:01:41;13.50;69.40
49132;DHT22;35149;51.196;6.204;2023-04-29T04:04:08;13.50;69.70
49132;DHT22;35149;51.196;6.204;2023-04-29T04:06:42;13.40;69.80
49132;DHT22;35149;51.196;6.204;2023-04-29T04:09:12;13.40;69.90
49132;DHT22;35149;51.196;6.204;2023-04-29T04:11:39;13.40;70.10
49132;DHT22;35149;51.196;6.204;2023-04-29T04:14:11;13.40;70.20
49132;DHT22;35149;51.196;6.204;2023-04-29T04:16:38;13.50;70.40
49132;DHT22;35149;51.196;6.204;2023-04-29T04:19:05;13.40;69.80
49132;DHT22;35149;51.196;6.204;2023-04-29T04:21:35;13.40;70.00
49132;DHT22;35149;51.196;6.204;2023-04-29T04:24:06;13.40;70.20
49132;DHT22;35149;51.196;6.204;2023-04-29T04:26:34;13.40;70.40
49132;DHT22;35149;51.196;6.204;2023-04-29T04:29:07;13.30;70.40
49132;DHT22;35149;51.196;6.204;2023-04-29T04:31:47;13.30;70.70
49132;DHT22;35149;51.196;6.204;2023-04-29T04:34:17;13.30;71.20
49132;DHT22;35149;51.196;6.204;2023-04-29T04:36:51;13.30;70.90
49132;DHT22;35149;51.196;6.204;2023-04-29T04:39:21;13.30;70.90
49132;DHT22;35149;51.196;6.204;2023-04-29T04:41:50;13.30;71.20
49132;DHT22;35149;51.196;6.204;2023-04-29T04:44:20;13.30;71.20
49132;DHT22;35149;51.196;6.204;2023-04-29T04:46:57;13.30;71.20
49132;DHT22;35149;51.196;6.204;2023-04-29T04:49:46;13.30;71.10
49132;DHT22;35149;51.196;6.204;2023-04-29T04:52:15;13.30;71.10
49132;DHT22;35149;51.196;6.204;2023-04-29T04:54:49;13.30;71.20
49132;DHT22;35149;51.196;6.204;2023-04-29T04:57:21;13.30;71.20
49132;DHT22;35149;51.196;6.204;2023-04-29T05:00:04;13.30;71.30
49132;DHT22;35149;51.196;6.204;2023-04-29T05:02:33;13.40;71.40
49132;DHT22;35149;51.196;6.204;2023-04-29T05:05:00;13.40;71.30
49132;DHT22;35149;51.196;6.204;2023-04-29T05:07:33;13.40;71.40
49132;DHT22;35149;51.196;6.204;2023-04-29T05:10:04;13.40;71.40
49132;DHT22;35149;51.196;6.204;2023-04-29T05:12:35;13.40;71.40
49132;DHT22;35149;51.196;6.204;2023-04-29T05:15:02;13.40;71.30
49132;DHT22;35149;51.196;6.204;2023-04-29T05:17:31;13.50;71.30
49132;DHT22;35149;51.196;6.204;2023-04-29T05:19:58;13.50;71.20
49132;DHT22;35149;51.196;6.204;2023-04-29T05:22:24;13.50;71.20
49132;DHT22;35149;51.196;6.204;2023-04-29T05:24:51;13.40;71.20
49132;DHT22;35149;51.196;6.204;2023-04-29T05:27:20;13.50;71.00
49132;DHT22;35149;51.196;6.204;2023-04-29T05:29:47;13.50;71.00
49132;DHT22;35149;51.196;6.204;2023-04-29T05:32:13;13.50;71.10
49132;DHT22;35149;51.196;6.204;2023-04-29T05:34:44;13.50;71.30
49132;DHT22;35149;51.196;6.204;2023-04-29T05:37:10;13.50;71.30
49132;DHT22;35149;51.196;6.204;2023-04-29T05:39:52;13.50;71.30
49132;DHT22;35149;51.196;6.204;2023-04-29T05:42:22;13.50;71.00
49132;DHT22;35149;51.196;6.204;2023-04-29T05:44:50;13.50;71.20
49132;DHT22;35149;51.196;6.204;2023-04-29T05:47:17;13.50;71.20
49132;DHT22;35149;51.196;6.204;2023-04-29T05:49:46;13.50;71.20
49132;DHT22;35149;51.196;6.204;2023-04-29T05:52:13;13.50;72.00
49132;DHT22;35149;51.196;6.204;2023-04-29T05:54:45;13.50;71.30
49132;DHT22;35149;51.196;6.204;2023-04-29T05:57:16;13.50;71.20
49132;DHT22;35149;51.196;6.204;2023-04-29T05:59:42;13.50;71.30
49132;DHT22;35149;51.196;6.204;2023-04-29T06:02:09;13.50;71.30
49132;DHT22;35149;51.196;6.204;2023-04-29T06:04:39;13.50;71.40
49132;DHT22;35149;51.196;6.204;2023-04-29T06:07:20;13.50;71.50
49132;DHT22;35149;51.196;6.204;2023-04-29T06:09:49;13.50;71.50
49132;DHT22;35149;51.196;6.204;2023-04-29T06:12:16;13.50;71.60
49132;DHT22;35149;51.196;6.204;2023-04-29T06:14:45;13.60;71.60
49132;DHT22;35149;51.196;6.204;2023-04-29T06:17:12;13.60;71.30
49132;DHT22;35149;51.196;6.204;2023-04-29T06:19:39;13.60;71.20
49132;DHT22;35149;51.196;6.204;2023-04-29T06:22:08;13.60;71.20
49132;DHT22;35149;51.196;6.204;2023-04-29T06:24:37;13.60;71.10
49132;DHT22;35149;51.196;6.204;2023-04-29T06:27:05;13.60;71.00
49132;DHT22;35149;51.196;6.204;2023-04-29T06:29:31;13.60;71.10
49132;DHT22;35149;51.196;6.204;2023-04-29T06:31:58;13.70;71.10
49132;DHT22;35149;51.196;6.204;2023-04-29T06:34:25;13.60;70.90
49132;DHT22;35149;51.196;6.204;2023-04-29T06:37:20;13.60;70.90
49132;DHT22;35149;51.196;6.204;2023-04-29T06:40:06;13.70;71.00
49132;DHT22;35149;51.196;6.204;2023-04-29T06:42:40;13.70;70.90
49132;DHT22;35149;51.196;6.204;2023-04-29T06:45:32;13.70;70.90
49132;DHT22;35149;51.196;6.204;2023-04-29T06:48:07;13.70;70.80
49132;DHT22;35149;51.196;6.204;2023-04-29T06:50:57;13.70;70.80
49132;DHT22;35149;51.196;6.204;2023-04-29T06:53:23;13.80;71.20
49132;DHT22;35149;51.196;6.204;2023-04-29T06:55:50;13.80;70.90
49132;DHT22;35149;51.196;6.204;2023-04-29T06:58:19;13.80;70.60
49132;DHT22;35149;51.196;6.204;2023-04-29T07:00:47;13.80;70.50
49132;DHT22;35149;51.196;6.204;2023-04-29T07:03:15;13.80;70.50
49132;DHT22;35149;51.196;6.204;2023-04-29T07:05:42;13.80;70.30
49132;DHT22;35149;51.196;6.204;2023-04-29T07:08:12;13.80;70.30
49132;DHT22;35149;51.196;6.204;2023-04-29T07:10:39;13.80;70.50
49132;DHT22;35149;51.196;6.204;2023-04-29T07:13:06;13.80;70.40
49132;DHT22;35149;51.196;6.204;2023-04-29T07:15:34;13.90;70.50
49132;DHT22;35149;51.196;6.204;2023-04-29T07:18:03;13.90;70.40
49132;DHT22;35149;51.196;6.204;2023-04-29T07:20:30;13.90;70.40
49132;DHT22;35149;51.196;6.204;2023-04-29T07:22:58;13.80;70.40
49132;DHT22;35149;51.196;6.204;2023-04-29T07:25:25;13.80;70.30
49132;DHT22;35149;51.196;6.204;2023-04-29T07:27:54;13.80;70.40
49132;DHT22;35149;51.196;6.204;2023-04-29T07:30:23;13.80;70.40
49132;DHT22;35149;51.196;6.204;2023-04-29T07:32:50;13.80;70.20
49132;DHT22;35149;51.196;6.204;2023-04-29T07:35:20;13.80;70.50
49132;DHT22;35149;51.196;6.204;2023-04-29T07:37:47;13.80;70.60
49132;DHT22;35149;51.196;6.204;2023-04-29T07:40:14;13.80;70.60
49132;DHT22;35149;51.196;6.204;2023-04-29T07:42:42;13.80;70.60
49132;DHT22;35149;51.196;6.204;2023-04-29T07:45:09;13.80;70.70
49132;DHT22;35149;51.196;6.204;2023-04-29T07:47:38;13.80;70.60
49132;DHT22;35149;51.196;6.204;2023-04-29T07:50:08;13.80;70.80
49132;DHT22;35149;51.196;6.204;2023-04-29T07:52:37;13.80;70.80
49132;DHT22;35149;51.196;6.204;2023-04-29T07:55:04;13.80;70.80
49132;DHT22;35149;51.196;6.204;2023-04-29T07:57:31;13.80;70.90
49132;DHT22;35149;51.196;6.204;2023-04-29T07:59:58;13.80;70.90
49132;DHT22;35149;51.196;6.204;2023-04-29T08:02:25;13.80;71.00
49132;DHT22;35149;51.196;6.204;2023-04-29T08:04:52;13.80;71.20
49132;DHT22;35149;51.196;6.204;2023-04-29T08:07:22;13.80;71.20
49132;DHT22;35149;51.196;6.204;2023-04-29T08:09:50;13.90;71.20
49132;DHT22;35149;51.196;6.204;2023-04-29T08:12:16;14.00;71.30
49132;DHT22;35149;51.196;6.204;2023-04-29T08:14:43;14.00;71.00
49132;DHT22;35149;51.196;6.204;2023-04-29T08:17:09;14.10;71.20
49132;DHT22;35149;51.196;6.204;2023-04-29T08:19:36;14.10;71.00
49132;DHT22;35149;51.196;6.204;2023-04-29T08:22:03;14.20;70.90
49132;DHT22;35149;51.196;6.204;2023-04-29T08:24:30;14.30;70.70
49132;DHT22;35149;51.196;6.204;2023-04-29T08:26:59;14.40;70.60
49132;DHT22;35149;51.196;6.204;2023-04-29T08:29:25;14.50;70.30
49132;DHT22;35149;51.196;6.204;2023-04-29T08:31:52;14.50;70.00
49132;DHT22;35149;51.196;6.204;2023-04-29T08:34:19;14.60;70.10
49132;DHT22;35149;51.196;6.204;2023-04-29T08:36:45;14.70;70.10
49132;DHT22;35149;51.196;6.204;2023-04-29T08:39:14;14.80;70.20
49132;DHT22;35149;51.196;6.204;2023-04-29T08:41:41;15.00;70.00
49132;DHT22;35149;51.196;6.204;2023-04-29T08:44:10;15.10;69.30
49132;DHT22;35149;51.196;6.204;2023-04-29T08:46:37;15.20;68.80
49132;DHT22;35149;51.196;6.204;2023-04-29T08:49:05;15.30;69.20
49132;DHT22;35149;51.196;6.204;2023-04-29T08:51:32;15.40;68.40
49132;DHT22;35149;51.196;6.204;2023-04-29T08:54:00;15.50;67.90
49132;DHT22;35149;51.196;6.204;2023-04-29T08:56:27;15.60;67.80
49132;DHT22;35149;51.196;6.204;2023-04-29T08:58:56;15.60;67.00
49132;DHT22;35149;51.196;6.204;2023-04-29T09:01:26;15.70;66.50
49132;DHT22;35149;51.196;6.204;2023-04-29T09:06:47;15.80;65.80
49132;DHT22;35149;51.196;6.204;2023-04-29T09:09:14;15.80;65.50
49132;DHT22;35149;51.196;6.204;2023-04-29T09:11:41;15.80;65.00
49132;DHT22;35149;51.196;6.204;2023-04-29T09:14:08;15.80;65.00
49132;DHT22;35149;51.196;6.204;2023-04-29T09:16:34;15.70;64.90
49132;DHT22;35149;51.196;6.204;2023-04-29T09:19:05;15.70;65.10
49132;DHT22;35149;51.196;6.204;2023-04-29T09:21:34;15.70;65.00
49132;DHT22;35149;51.196;6.204;2023-04-29T09:24:02;15.60;64.80
49132;DHT22;35149;51.196;6.204;2023-04-29T09:26:41;15.60;65.00
49132;DHT22;35149;51.196;6.204;2023-04-29T09:29:12;15.60;64.60
49132;DHT22;35149;51.196;6.204;2023-04-29T09:31:44;15.50;64.50
49132;DHT22;35149;51.196;6.204;2023-04-29T09:34:12;15.50;64.80
49132;DHT22;35149;51.196;6.204;2023-04-29T09:39:15;15.40;64.90
49132;DHT22;35149;51.196;6.204;2023-04-29T09:49:25;15.30;64.70
49132;DHT22;35149;51.196;6.204;2023-04-29T09:51:55;15.20;65.00
49132;DHT22;35149;51.196;6.204;2023-04-29T09:54:24;15.20;65.00
49132;DHT22;35149;51.196;6.204;2023-04-29T09:56:54;15.10;65.00
49132;DHT22;35149;51.196;6.204;2023-04-29T09:59:22;15.10;65.20
49132;DHT22;35149;51.196;6.204;2023-04-29T10:01:50;15.10;65.20
49132;DHT22;35149;51.196;6.204;2023-04-29T10:04:22;15.10;65.20
49132;DHT22;35149;51.196;6.204;2023-04-29T10:06:53;15.10;66.00
49132;DHT22;35149;51.196;6.204;2023-04-29T10:09:21;15.10;65.50
49132;DHT22;35149;51.196;6.204;2023-04-29T10:11:51;15.10;65.50
49132;DHT22;35149;51.196;6.204;2023-04-29T10:14:20;15.10;65.50
49132;DHT22;35149;51.196;6.204;2023-04-29T10:17:10;15.10;65.70
49132;DHT22;35149;51.196;6.204;2023-04-29T10:19:45;15.10;65.60
49132;DHT22;35149;51.196;6.204;2023-04-29T10:22:21;15.20;65.60
49132;DHT22;35149;51.196;6.204;2023-04-29T10:24:52;15.20;65.30
49132;DHT22;35149;51.196;6.204;2023-04-29T10:27:21;15.20;65.30
49132;DHT22;35149;51.196;6.204;2023-04-29T10:29:52;15.20;65.40
49132;DHT22;35149;51.196;6.204;2023-04-29T10:32:21;15.30;65.60
49132;DHT22;35149;51.196;6.204;2023-04-29T10:34:52;15.30;65.70
49132;DHT22;35149;51.196;6.204;2023-04-29T10:37:20;15.30;65.50
49132;DHT22;35149;51.196;6.204;2023-04-29T10:43:05;15.40;65.50
49132;DHT22;35149;51.196;6.204;2023-04-29T10:45:28;15.40;65.30
49132;DHT22;35149;51.196;6.204;2023-04-29T10:53:15;15.50;65.40
49132;DHT22;35149;51.196;6.204;2023-04-29T10:55:46;15.60;65.40
49132;DHT22;35149;51.196;6.204;2023-04-29T10:58:35;15.60;65.00
49132;DHT22;35149;51.196;6.204;2023-04-29T11:01:03;15.70;64.60
49132;DHT22;35149;51.196;6.204;2023-04-29T11:06:15;15.80;64.10
49132;DHT22;35149;51.196;6.204;2023-04-29T11:08:42;15.90;64.30
49132;DHT22;35149;51.196;6.204;2023-04-29T11:11:08;15.90;64.30
49132;DHT22;35149;51.196;6.204;2023-04-29T11:13:39;16.00;64.40
49132;DHT22;35149;51.196;6.204;2023-04-29T11:16:10;16.00;64.10
49132;DHT22;35149;51.196;6.204;2023-04-29T11:19:06;16.10;63.50
49132;DHT22;35149;51.196;6.204;2023-04-29T11:21:36;16.20;63.50
49132;DHT22;35149;51.196;6.204;2023-04-29T11:24:04;16.30;63.60
49132;DHT22;35149;51.196;6.204;2023-04-29T11:26:34;16.30;63.40
49132;DHT22;35149;51.196;6.204;2023-04-29T11:29:01;16.40;63.80
49132;DHT22;35149;51.196;6.204;2023-04-29T11:31:31;16.50;63.70
49132;DHT22;35149;51.196;6.204;2023-04-29T11:33:59;16.60;63.40
49132;DHT22;35149;51.196;6.204;2023-04-29T11:36:26;16.70;63.20
49132;DHT22;35149;51.196;6.204;2023-04-29T11:38:53;16.80;63.30
49132;DHT22;35149;51.196;6.204;2023-04-29T11:41:20;16.90;62.80
49132;DHT22;35149;51.196;6.204;2023-04-29T11:43:54;17.00;61.90
49132;DHT22;35149;51.196;6.204;2023-04-29T11:46:22;17.00;61.40
49132;DHT22;35149;51.196;6.204;2023-04-29T11:48:49;17.10;61.90
49132;DHT22;35149;51.196;6.204;2023-04-29T11:51:17;17.20;61.90
49132;DHT22;35149;51.196;6.204;2023-04-29T11:53:44;17.20;61.20
49132;DHT22;35149;51.196;6.204;2023-04-29T11:56:11;17.30;61.10
49132;DHT22;35149;51.196;6.204;2023-04-29T11:58:41;17.40;61.20
49132;DHT22;35149;51.196;6.204;2023-04-29T12:01:08;17.50;60.80
49132;DHT22;35149;51.196;6.204;2023-04-29T12:03:35;17.50;60.60
49132;DHT22;35149;51.196;6.204;2023-04-29T12:06:04;17.60;61.30
49132;DHT22;35149;51.196;6.204;2023-04-29T12:08:33;17.80;60.70
49132;DHT22;35149;51.196;6.204;2023-04-29T12:11:00;17.80;60.20
49132;DHT22;35149;51.196;6.204;2023-04-29T12:13:28;18.10;60.20
49132;DHT22;35149;51.196;6.204;2023-04-29T12:15:56;18.10;59.20
49132;DHT22;35149;51.196;6.204;2023-04-29T12:18:24;18.20;59.10
49132;DHT22;35149;51.196;6.204;2023-04-29T12:20:53;18.30;58.60
49132;DHT22;35149;51.196;6.204;2023-04-29T12:23:24;18.40;58.30
49132;DHT22;35149;51.196;6.204;2023-04-29T12:28:21;18.70;58.70
49132;DHT22;35149;51.196;6.204;2023-04-29T12:30:52;18.80;58.40
49132;DHT22;35149;51.196;6.204;2023-04-29T12:33:28;19.00;58.50
49132;DHT22;35149;51.196;6.204;2023-04-29T12:35:56;19.10;58.00
49132;DHT22;35149;51.196;6.204;2023-04-29T12:38:28;19.30;57.80
49132;DHT22;35149;51.196;6.204;2023-04-29T12:40:57;19.50;56.60
49132;DHT22;35149;51.196;6.204;2023-04-29T12:43:31;19.70;56.70
49132;DHT22;35149;51.196;6.204;2023-04-29T12:46:06;19.80;56.80
49132;DHT22;35149;51.196;6.204;2023-04-29T12:48:37;20.00;55.00
49132;DHT22;35149;51.196;6.204;2023-04-29T12:51:04;20.20;54.90
49132;DHT22;35149;51.196;6.204;2023-04-29T12:53:33;20.30;54.60
49132;DHT22;35149;51.196;6.204;2023-04-29T12:56:00;20.40;54.60
49132;DHT22;35149;51.196;6.204;2023-04-29T12:58:30;20.50;55.00
49132;DHT22;35149;51.196;6.204;2023-04-29T13:00:58;20.60;54.10
49132;DHT22;35149;51.196;6.204;2023-04-29T13:03:25;20.70;53.90
49132;DHT22;35149;51.196;6.204;2023-04-29T13:05:52;20.90;53.60
49132;DHT22;35149;51.196;6.204;2023-04-29T13:08:20;21.10;54.10
49132;DHT22;35149;51.196;6.204;2023-04-29T13:10:46;21.30;52.70
49132;DHT22;35149;51.196;6.204;2023-04-29T13:13:13;21.50;51.80
49132;DHT22;35149;51.196;6.204;2023-04-29T13:15:40;21.60;51.10
49132;DHT22;35149;51.196;6.204;2023-04-29T13:18:06;21.60;50.20
49132;DHT22;35149;51.196;6.204;2023-04-29T13:20:33;21.60;49.80
49132;DHT22;35149;51.196;6.204;2023-04-29T13:23:08;21.60;49.00
49132;DHT22;35149;51.196;6.204;2023-04-29T13:25:35;21.40;48.70
49132;DHT22;35149;51.196;6.204;2023-04-29T13:28:02;21.20;48.90
49132;DHT22;35149;51.196;6.204;2023-04-29T13:30:30;21.00;49.50
49132;DHT22;35149;51.196;6.204;2023-04-29T13:32:57;20.80;49.60
49132;DHT22;35149;51.196;6.204;2023-04-29T13:35:37;20.60;50.00
49132;DHT22;35149;51.196;6.204;2023-04-29T13:38:05;20.30;50.40
49132;DHT22;35149;51.196;6.204;2023-04-29T13:40:32;20.10;51.00
49132;DHT22;35149;51.196;6.204;2023-04-29T13:43:06;19.90;51.10
49132;DHT22;35149;51.196;6.204;2023-04-29T13:45:36;19.60;51.50
49132;DHT22;35149;51.196;6.204;2023-04-29T13:48:08;19.50;51.90
49132;DHT22;35149;51.196;6.204;2023-04-29T13:50:54;19.30;52.00
49132;DHT22;35149;51.196;6.204;2023-04-29T13:53:24;19.20;52.40
49132;DHT22;35149;51.196;6.204;2023-04-29T13:56:11;19.10;52.50
49132;DHT22;35149;51.196;6.204;2023-04-29T13:58:41;19.00;53.30
49132;DHT22;35149;51.196;6.204;2023-04-29T14:01:27;18.90;53.00
49132;DHT22;35149;51.196;6.204;2023-04-29T14:03:57;18.80;53.50
49132;DHT22;35149;51.196;6.204;2023-04-29T14:06:24;18.90;53.40
49132;DHT22;35149;51.196;6.204;2023-04-29T14:08:51;18.80;53.50
49132;DHT22;35149;51.196;6.204;2023-04-29T14:11:17;18.80;53.70
49132;DHT22;35149;51.196;6.204;2023-04-29T14:13:44;18.80;54.30
49132;DHT22;35149;51.196;6.204;2023-04-29T14:16:11;18.80;53.80
49132;DHT22;35149;51.196;6.204;2023-04-29T14:18:38;18.90;53.70
49132;DHT22;35149;51.196;6.204;2023-04-29T14:21:05;18.90;53.90
49132;DHT22;35149;51.196;6.204;2023-04-29T14:23:31;18.90;53.30
49132;DHT22;35149;51.196;6.204;2023-04-29T14:25:58;19.00;53.80
49132;DHT22;35149;51.196;6.204;2023-04-29T14:28:44;19.00;53.40
49132;DHT22;35149;51.196;6.204;2023-04-29T14:31:11;19.00;53.80
49132;DHT22;35149;51.196;6.204;2023-04-29T14:33:39;19.00;53.20
49132;DHT22;35149;51.196;6.204;2023-04-29T14:36:06;19.00;53.00
49132;DHT22;35149;51.196;6.204;2023-04-29T14:38:33;19.00;52.80
49132;DHT22;35149;51.196;6.204;2023-04-29T14:41:00;19.00;53.40
49132;DHT22;35149;51.196;6.204;2023-04-29T14:43:26;19.00;53.40
49132;DHT22;35149;51.196;6.204;2023-04-29T14:45:54;19.10;53.40
49132;DHT22;35149;51.196;6.204;2023-04-29T14:48:21;19.10;53.20
49132;DHT22;35149;51.196;6.204;2023-04-29T14:50:48;19.10;53.40
49132;DHT22;35149;51.196;6.204;2023-04-29T14:53:14;19.10;53.40
49132;DHT22;35149;51.196;6.204;2023-04-29T14:55:42;19.10;53.00
49132;DHT22;35149;51.196;6.204;2023-04-29T14:58:09;19.10;53.20
49132;DHT22;35149;51.196;6.204;2023-04-29T15:00:35;19.20;52.80
49132;DHT22;35149;51.196;6.204;2023-04-29T15:03:03;19.30;52.90
49132;DHT22;35149;51.196;6.204;2023-04-29T15:05:30;19.40;53.20
49132;DHT22;35149;51.196;6.204;2023-04-29T15:07:57;19.50;53.00
49132;DHT22;35149;51.196;6.204;2023-04-29T15:10:26;19.60;52.80
49132;DHT22;35149;51.196;6.204;2023-04-29T15:12:53;19.80;51.60
49132;DHT22;35149;51.196;6.204;2023-04-29T15:15:20;19.80;52.00
49132;DHT22;35149;51.196;6.204;2023-04-29T15:17:47;19.80;51.50
49132;DHT22;35149;51.196;6.204;2023-04-29T15:20:14;19.80;51.10
49132;DHT22;35149;51.196;6.204;2023-04-29T15:22:41;19.80;50.60
49132;DHT22;35149;51.196;6.204;2023-04-29T15:25:08;19.80;50.70
49132;DHT22;35149;51.196;6.204;2023-04-29T15:27:39;19.70;51.10
49132;DHT22;35149;51.196;6.204;2023-04-29T15:30:07;19.60;51.20
49132;DHT22;35149;51.196;6.204;2023-04-29T15:32:34;19.60;51.40
49132;DHT22;35149;51.196;6.204;2023-04-29T15:35:02;19.50;51.10
49132;DHT22;35149;51.196;6.204;2023-04-29T15:37:29;19.50;51.20
49132;DHT22;35149;51.196;6.204;2023-04-29T15:40:00;19.50;51.40
49132;DHT22;35149;51.196;6.204;2023-04-29T15:42:27;19.40;50.80
49132;DHT22;35149;51.196;6.204;2023-04-29T15:44:54;19.40;51.70
49132;DHT22;35149;51.196;6.204;2023-04-29T15:47:21;19.30;51.50
49132;DHT22;35149;51.196;6.204;2023-04-29T15:49:48;19.30;51.50
49132;DHT22;35149;51.196;6.204;2023-04-29T15:52:17;19.30;51.30
49132;DHT22;35149;51.196;6.204;2023-04-29T15:54:44;19.40;51.60
49132;DHT22;35149;51.196;6.204;2023-04-29T15:57:10;19.50;52.20
49132;DHT22;35149;51.196;6.204;2023-04-29T15:59:37;19.70;52.50
49132;DHT22;35149;51.196;6.204;2023-04-29T16:02:03;19.90;52.20
49132;DHT22;35149;51.196;6.204;2023-04-29T16:04:36;20.20;52.00
49132;DHT22;35149;51.196;6.204;2023-04-29T16:07:03;20.50;50.90
49132;DHT22;35149;51.196;6.204;2023-04-29T16:09:31;20.70;50.40
49132;DHT22;35149;51.196;6.204;2023-04-29T16:12:01;20.80;50.30
49132;DHT22;35149;51.196;6.204;2023-04-29T16:14:29;20.90;49.60
49132;DHT22;35149;51.196;6.204;2023-04-29T16:16:55;21.00;49.10